Orbital elements of SL-24 R/B
| Launched | 28 June 2004 |
| Flight ended | – |
| Launch site | Tyuratam Missile and Space Center, Kazakhstan (Also known as Baikonur Cosmodrome) |
| Owner | Commonwealth of Independent States (former USSR) |
| NORAD ID | 28367 |
| Date fetched |
Epoch osculation |
Inc. [°] |
Ecc. | RA asc node [hr] |
Arg Peri. [°] |
Mean anom [°] |
Mean motion [rev/day] |
Abs. mag |
| Date fetched |
Epoch osculation |
Inc. [°] |
Ecc. | RA asc node [hr] |
Arg Peri. [°] |
Mean anom [°] |
Mean motion [rev/day] |
Abs. mag |
| 2026 May 08 17:57 | 2026 May 05 11:00:32 | 98.2088 | 0.03494 | 5.8868 | 0.7199 | 107.1337 | 13.88633 | 6.243 |
| 2026 May 07 17:58 | 2026 May 05 11:00:32 | 98.2088 | 0.03494 | 5.8868 | 0.7199 | 107.1337 | 13.88633 | 6.243 |
| 2026 May 06 17:57 | 2026 May 05 11:00:32 | 98.2088 | 0.03494 | 5.8868 | 0.7199 | 107.1337 | 13.88633 | 6.243 |
| 2026 May 05 17:57 | 2026 May 05 11:00:32 | 98.2088 | 0.03494 | 5.8868 | 0.7199 | 107.1337 | 13.88633 | 6.243 |
| 2026 May 04 17:57 | 2026 Apr 30 15:27:30 | 98.2083 | 0.03497 | 5.6034 | 14.0938 | 107.1337 | 13.88633 | 6.243 |
| 2026 May 03 17:57 | 2026 Apr 30 15:27:30 | 98.2083 | 0.03497 | 5.6034 | 14.0938 | 107.1337 | 13.88633 | 6.243 |
| 2026 May 02 17:57 | 2026 Apr 30 15:27:30 | 98.2083 | 0.03497 | 5.6034 | 14.0938 | 107.1337 | 13.88633 | 6.243 |
| 2026 May 01 17:56 | 2026 Apr 30 15:27:30 | 98.2083 | 0.03497 | 5.6034 | 14.0938 | 107.1337 | 13.88633 | 6.243 |
| 2026 Apr 30 17:56 | 2026 Apr 30 15:27:30 | 98.2083 | 0.03497 | 5.6034 | 14.0938 | 107.1337 | 13.88633 | 6.243 |
| 2026 Apr 29 17:57 | 2026 Apr 24 12:08:32 | 98.2075 | 0.03500 | 5.2420 | 31.1345 | 107.1337 | 13.88633 | 6.243 |
| 2026 Apr 28 17:56 | 2026 Apr 24 12:08:32 | 98.2075 | 0.03500 | 5.2420 | 31.1345 | 107.1337 | 13.88633 | 6.243 |
| 2026 Apr 27 17:58 | 2026 Apr 24 12:08:32 | 98.2075 | 0.03500 | 5.2420 | 31.1345 | 107.1337 | 13.88633 | 6.243 |
| 2026 Apr 26 17:58 | 2026 Apr 24 12:08:32 | 98.2075 | 0.03500 | 5.2420 | 31.1345 | 107.1337 | 13.88633 | 6.243 |
| 2026 Apr 25 17:58 | 2026 Apr 24 12:08:32 | 98.2075 | 0.03500 | 5.2420 | 31.1345 | 107.1337 | 13.88633 | 6.243 |
| 2026 Apr 24 17:59 | 2026 Apr 24 12:08:32 | 98.2075 | 0.03500 | 5.2420 | 31.1345 | 107.1337 | 13.88633 | 6.243 |
| 2026 Apr 23 17:57 | 2026 Apr 19 07:56:56 | 98.2068 | 0.03503 | 4.9374 | 45.4864 | 107.1337 | 13.88633 | 6.243 |
| 2026 Apr 22 17:57 | 2026 Apr 19 07:56:56 | 98.2068 | 0.03503 | 4.9374 | 45.4864 | 107.1337 | 13.88633 | 6.243 |
| 2026 Apr 21 17:57 | 2026 Apr 19 07:56:56 | 98.2068 | 0.03503 | 4.9374 | 45.4864 | 107.1337 | 13.88633 | 6.243 |
| 2026 Apr 20 17:57 | 2026 Apr 19 07:56:56 | 98.2068 | 0.03503 | 4.9374 | 45.4864 | 107.1337 | 13.88633 | 6.243 |
| 2026 Apr 19 17:58 | 2026 Apr 19 07:56:56 | 98.2068 | 0.03503 | 4.9374 | 45.4864 | 107.1337 | 13.88633 | 6.243 |
| 2026 Apr 18 17:56 | 2026 Apr 13 04:12:27 | 98.2059 | 0.03504 | 4.5752 | 62.5470 | 107.1337 | 13.88633 | 6.243 |
| 2026 Apr 16 17:57 | 2026 Apr 13 04:12:27 | 98.2059 | 0.03504 | 4.5752 | 62.5470 | 107.1337 | 13.88633 | 6.243 |
| 2026 Apr 14 17:57 | 2026 Apr 13 04:12:27 | 98.2059 | 0.03504 | 4.5752 | 62.5470 | 107.1337 | 13.88633 | 6.243 |
| 2026 Apr 13 17:57 | 2026 Apr 13 04:12:27 | 98.2059 | 0.03504 | 4.5752 | 62.5470 | 107.1337 | 13.88633 | 6.243 |
| 2026 Apr 12 17:57 | 2026 Apr 08 16:00:39 | 98.2054 | 0.03505 | 4.3099 | 75.0409 | 107.1337 | 13.88633 | 6.243 |
| 2026 Apr 11 17:57 | 2026 Apr 08 16:00:39 | 98.2054 | 0.03505 | 4.3099 | 75.0409 | 107.1337 | 13.88633 | 6.243 |